createdAt,value
2023-07-02T00:00:02.090Z,3.30
2023-07-02T00:02:28.981Z,3.33
2023-07-02T00:04:55.915Z,5.03
2023-07-02T00:07:22.850Z,3.60
2023-07-02T00:09:49.630Z,3.23
2023-07-02T00:12:17.240Z,3.57
2023-07-02T00:14:44.597Z,3.60
2023-07-02T00:17:13.681Z,3.20
2023-07-02T00:19:44.678Z,5.30
2023-07-02T00:22:11.637Z,5.30
2023-07-02T00:24:38.875Z,3.50
2023-07-02T00:27:06.021Z,4.80
2023-07-02T00:29:32.891Z,3.23
2023-07-02T00:31:59.689Z,3.37
2023-07-02T00:34:27.620Z,4.33
2023-07-02T00:36:54.448Z,3.80
2023-07-02T00:39:21.928Z,2.73
2023-07-02T00:41:48.733Z,6.93
2023-07-02T00:44:16.653Z,2.90
2023-07-02T00:46:43.863Z,3.20
2023-07-02T00:49:11.638Z,3.77
2023-07-02T00:51:38.798Z,3.77
2023-07-02T00:54:05.867Z,3.33
2023-07-02T00:56:34.413Z,3.57
2023-07-02T00:59:02.065Z,3.90
2023-07-02T01:01:29.604Z,4.60
2023-07-02T01:04:01.737Z,4.13
2023-07-02T01:06:30.585Z,2.93
2023-07-02T01:09:03.149Z,4.13
2023-07-02T01:11:52.754Z,6.10
2023-07-02T01:14:34.302Z,3.17
2023-07-02T01:17:06.079Z,3.30
2023-07-02T01:19:54.409Z,2.60
2023-07-02T01:22:28.859Z,4.23
2023-07-02T01:24:56.323Z,5.40
2023-07-02T01:27:23.187Z,5.47
2023-07-02T01:29:53.759Z,2.60
2023-07-02T01:32:21.778Z,3.90
2023-07-02T01:34:54.218Z,3.77
2023-07-02T01:37:21.121Z,3.13
2023-07-02T01:39:47.936Z,3.63
2023-07-02T01:42:20.181Z,4.50
2023-07-02T01:44:52.321Z,4.30
2023-07-02T01:47:20.998Z,2.80
2023-07-02T01:49:47.990Z,6.27
2023-07-02T01:52:14.878Z,4.17
2023-07-02T01:54:41.966Z,2.90
2023-07-02T01:57:10.110Z,4.10
2023-07-02T01:59:37.221Z,5.97
2023-07-02T02:02:04.648Z,2.37
2023-07-02T02:04:31.570Z,5.33
2023-07-02T02:06:58.379Z,4.00
2023-07-02T02:09:25.160Z,2.30
2023-07-02T02:11:53.445Z,3.53
2023-07-02T02:14:20.517Z,7.90
2023-07-02T02:16:47.590Z,3.33
2023-07-02T02:19:17.958Z,3.10
2023-07-02T02:21:45.118Z,5.37
2023-07-02T02:24:11.910Z,4.27
2023-07-02T02:26:38.666Z,8.30
2023-07-02T02:29:05.696Z,3.83
2023-07-02T02:31:32.848Z,2.03
2023-07-02T02:34:01.751Z,2.50
2023-07-02T02:36:28.589Z,2.10
2023-07-02T02:38:56.593Z,1.87
2023-07-02T02:41:24.838Z,3.43
2023-07-02T02:43:53.489Z,5.03
2023-07-02T02:46:23.224Z,9.73
2023-07-02T02:48:50.726Z,3.13
2023-07-02T02:51:17.818Z,7.70
2023-07-02T02:53:44.625Z,5.90
2023-07-02T02:56:11.618Z,3.90
2023-07-02T02:58:38.514Z,2.53
2023-07-02T03:01:11.405Z,3.27
2023-07-02T03:03:40.376Z,6.60
2023-07-02T03:06:07.214Z,3.63
2023-07-02T03:08:33.995Z,5.80
2023-07-02T03:11:00.800Z,5.10
2023-07-02T03:13:27.631Z,4.23
2023-07-02T03:15:54.418Z,4.20
2023-07-02T03:18:21.241Z,4.80
2023-07-02T03:20:48.479Z,3.60
2023-07-02T03:23:15.496Z,8.33
2023-07-02T03:25:42.501Z,3.47
2023-07-02T03:28:09.269Z,3.53
2023-07-02T03:30:36.197Z,3.87
2023-07-02T03:33:03.236Z,2.47
2023-07-02T03:35:30.026Z,6.33
2023-07-02T03:37:58.592Z,4.80
2023-07-02T03:40:25.486Z,2.90
2023-07-02T03:42:52.366Z,3.57
2023-07-02T03:45:19.169Z,4.03
2023-07-02T03:47:46.013Z,3.20
2023-07-02T03:50:12.815Z,5.13
2023-07-02T03:52:39.700Z,8.90
2023-07-02T03:55:07.117Z,4.00
2023-07-02T03:57:34.323Z,2.67
2023-07-02T04:00:01.236Z,7.63
2023-07-02T04:02:28.108Z,3.80
2023-07-02T04:04:55.080Z,2.77
2023-07-02T04:07:21.878Z,5.07
2023-07-02T04:09:48.636Z,10.30
2023-07-02T04:12:15.398Z,8.37
2023-07-02T04:14:42.178Z,6.27
2023-07-02T04:17:09.225Z,5.10
2023-07-02T04:19:36.058Z,6.10
2023-07-02T04:22:03.727Z,4.27
2023-07-02T04:24:30.492Z,8.33
2023-07-02T04:27:04.342Z,4.60
2023-07-02T04:29:45.787Z,6.20
2023-07-02T04:32:12.818Z,5.80
2023-07-02T04:34:39.813Z,10.30
2023-07-02T04:37:07.115Z,8.07
2023-07-02T04:39:35.467Z,8.73
2023-07-02T04:42:02.323Z,10.47
2023-07-02T04:44:32.097Z,5.80
2023-07-02T04:47:00.153Z,6.97
2023-07-02T04:49:27.163Z,5.40
2023-07-02T04:51:54.898Z,8.23
2023-07-02T04:54:22.495Z,5.57
2023-07-02T04:56:49.737Z,10.43
2023-07-02T04:59:16.701Z,9.47
2023-07-02T05:01:45.427Z,15.33
2023-07-02T05:04:12.620Z,9.27
2023-07-02T05:06:39.513Z,20.53
2023-07-02T05:09:06.455Z,11.00
2023-07-02T05:11:33.279Z,13.67
2023-07-02T05:14:00.015Z,7.20
2023-07-02T05:16:26.858Z,11.77
2023-07-02T05:18:53.674Z,11.73
2023-07-02T05:21:21.167Z,11.60
2023-07-02T05:23:49.538Z,13.70
2023-07-02T05:26:16.778Z,13.73
2023-07-02T05:28:43.569Z,15.07
2023-07-02T05:31:10.354Z,14.43
2023-07-02T05:33:37.170Z,14.67
2023-07-02T05:36:04.045Z,13.97
2023-07-02T05:38:30.839Z,10.83
2023-07-02T05:40:58.257Z,14.07
2023-07-02T05:43:25.079Z,12.20
2023-07-02T05:45:54.609Z,11.67
2023-07-02T05:48:21.408Z,14.70
2023-07-02T05:50:48.606Z,16.50
2023-07-02T05:53:15.692Z,18.33
2023-07-02T05:55:44.081Z,12.50
2023-07-02T05:58:11.257Z,11.00
2023-07-02T06:00:38.112Z,12.47
2023-07-02T06:03:04.936Z,11.20
2023-07-02T06:05:31.997Z,18.33
2023-07-02T06:07:58.786Z,11.30
2023-07-02T06:10:25.545Z,15.70
2023-07-02T06:12:53.286Z,19.57
2023-07-02T06:15:20.074Z,10.70
2023-07-02T06:17:46.931Z,18.40
2023-07-02T06:20:14.177Z,13.10
2023-07-02T06:22:41.677Z,14.23
2023-07-02T06:25:08.659Z,22.10
2023-07-02T06:27:35.458Z,19.07
2023-07-02T06:30:02.562Z,15.30
2023-07-02T06:32:29.393Z,16.30
2023-07-02T06:34:56.154Z,17.17
2023-07-02T06:37:23.048Z,13.53
2023-07-02T06:39:49.847Z,13.90
2023-07-02T06:42:16.624Z,12.40
2023-07-02T06:44:44.840Z,15.10
2023-07-02T06:47:11.609Z,17.47
2023-07-02T06:49:38.311Z,14.17
2023-07-02T06:52:05.366Z,12.77
2023-07-02T06:54:32.110Z,17.80
2023-07-02T06:56:58.888Z,16.67
2023-07-02T06:59:25.702Z,14.50
2023-07-02T07:01:52.652Z,16.27
2023-07-02T07:04:20.072Z,16.13
2023-07-02T07:06:47.473Z,14.83
2023-07-02T07:09:14.485Z,13.17
2023-07-02T07:11:41.286Z,15.20
2023-07-02T07:14:08.314Z,13.90
2023-07-02T07:16:36.664Z,16.00
2023-07-02T07:19:03.568Z,16.67
2023-07-02T07:21:30.332Z,15.00
2023-07-02T07:23:57.260Z,15.27
2023-07-02T07:26:24.006Z,17.20
2023-07-02T07:28:50.895Z,15.97
2023-07-02T07:31:17.694Z,16.23
2023-07-02T07:33:45.118Z,14.17
2023-07-02T07:36:12.015Z,12.87
2023-07-02T07:38:39.406Z,12.43
2023-07-02T07:41:06.181Z,16.53
2023-07-02T07:43:32.971Z,14.80
2023-07-02T07:46:00.473Z,26.90
2023-07-02T07:48:27.318Z,21.20
2023-07-02T07:50:54.260Z,15.37
2023-07-02T07:53:21.019Z,15.53
2023-07-02T07:55:47.942Z,19.33
2023-07-02T07:58:15.042Z,20.73
2023-07-02T08:00:41.913Z,15.70
2023-07-02T08:03:08.798Z,19.93
2023-07-02T08:05:35.668Z,17.77
2023-07-02T08:08:02.484Z,16.73
2023-07-02T08:10:29.338Z,16.00
2023-07-02T08:12:56.207Z,19.20
2023-07-02T08:15:23.875Z,14.80
2023-07-02T08:17:52.690Z,15.80
2023-07-02T08:20:20.082Z,19.10
2023-07-02T08:22:46.977Z,17.47
2023-07-02T08:25:13.882Z,15.70
2023-07-02T08:27:40.682Z,17.10
2023-07-02T08:30:08.210Z,18.07
2023-07-02T08:32:35.132Z,15.63
2023-07-02T08:35:03.375Z,23.83
2023-07-02T08:37:30.254Z,22.00
2023-07-02T08:39:57.153Z,14.67
2023-07-02T08:42:24.142Z,16.90
2023-07-02T08:44:56.163Z,14.23
2023-07-02T08:47:23.698Z,14.90
2023-07-02T08:49:51.110Z,16.30
2023-07-02T08:52:17.826Z,13.70
2023-07-02T08:54:44.575Z,14.97
2023-07-02T08:57:11.416Z,22.90
2023-07-02T08:59:38.360Z,14.80
2023-07-02T09:02:05.552Z,12.27
2023-07-02T09:04:32.432Z,17.60
2023-07-02T09:07:06.239Z,13.23
2023-07-02T09:09:34.125Z,15.53
2023-07-02T09:12:01.995Z,12.97
2023-07-02T09:14:32.657Z,14.63
2023-07-02T09:17:10.385Z,13.03
2023-07-02T09:19:49.651Z,16.63
2023-07-02T09:22:17.042Z,10.90
2023-07-02T09:24:54.169Z,17.00
2023-07-02T09:27:21.229Z,12.47
2023-07-02T09:29:55.163Z,12.00
2023-07-02T09:32:27.730Z,10.60
2023-07-02T09:34:57.107Z,10.33
2023-07-02T09:37:24.773Z,13.27
2023-07-02T09:39:55.830Z,14.40
2023-07-02T09:42:23.137Z,12.30
2023-07-02T09:44:54.922Z,15.40
2023-07-02T09:47:23.178Z,11.50
2023-07-02T09:50:04.519Z,13.30
2023-07-02T09:52:31.623Z,14.63
2023-07-02T09:54:58.340Z,13.33
2023-07-02T09:57:25.186Z,10.03
2023-07-02T09:59:52.160Z,13.70
2023-07-02T10:02:19.042Z,13.80
2023-07-02T10:04:47.684Z,10.10
2023-07-02T10:07:27.568Z,9.77
2023-07-02T10:09:56.676Z,10.77
2023-07-02T10:12:28.547Z,12.50
2023-07-02T10:14:57.378Z,11.43
2023-07-02T10:17:55.528Z,14.13
2023-07-02T10:20:34.025Z,13.70
2023-07-02T10:23:02.898Z,11.40
2023-07-02T10:25:30.388Z,11.87
2023-07-02T10:27:57.500Z,12.40
2023-07-02T10:30:35.525Z,12.23
2023-07-02T10:33:15.992Z,12.23
2023-07-02T10:35:45.969Z,13.23
2023-07-02T10:38:23.062Z,16.80
2023-07-02T10:40:57.619Z,10.47
2023-07-02T10:43:31.552Z,12.50
2023-07-02T10:46:02.657Z,12.40
2023-07-02T10:48:30.627Z,13.97
2023-07-02T10:50:57.809Z,13.93
2023-07-02T10:53:25.848Z,11.50
2023-07-02T10:55:57.639Z,17.47
2023-07-02T10:58:25.394Z,16.00
2023-07-02T11:00:52.993Z,23.77
2023-07-02T11:03:24.431Z,16.70
2023-07-02T11:05:53.108Z,16.93
2023-07-02T11:08:22.430Z,15.63
2023-07-02T11:10:49.326Z,15.20
2023-07-02T11:13:21.033Z,18.77
2023-07-02T11:15:49.091Z,13.60
2023-07-02T11:18:17.757Z,16.17
2023-07-02T11:20:46.616Z,18.80
2023-07-02T11:23:23.714Z,23.70
2023-07-02T11:26:04.093Z,15.00
2023-07-02T11:28:32.548Z,13.30
2023-07-02T11:31:00.229Z,14.43
2023-07-02T11:33:41.185Z,15.60
2023-07-02T11:36:09.211Z,17.03
2023-07-02T11:38:37.733Z,15.13
2023-07-02T11:41:05.357Z,14.13
2023-07-02T11:43:32.330Z,16.33
2023-07-02T11:45:59.870Z,17.77
2023-07-02T11:48:26.758Z,16.43
2023-07-02T11:50:53.612Z,14.03
2023-07-02T11:53:20.472Z,16.13
2023-07-02T11:55:47.563Z,19.53
2023-07-02T11:58:14.564Z,11.83
2023-07-02T12:00:41.504Z,13.97
2023-07-02T12:03:08.424Z,17.27
2023-07-02T12:05:35.259Z,14.57
2023-07-02T12:08:03.742Z,11.90
2023-07-02T12:10:30.609Z,16.60
2023-07-02T12:12:57.872Z,15.47
2023-07-02T12:15:24.655Z,17.00
2023-07-02T12:17:51.473Z,16.20
2023-07-02T12:20:18.604Z,15.70
2023-07-02T12:22:45.718Z,18.17
2023-07-02T12:25:40.647Z,15.93
2023-07-02T12:28:07.979Z,16.33
2023-07-02T12:30:34.934Z,16.20
2023-07-02T12:33:01.846Z,14.33
2023-07-02T12:35:28.640Z,16.97
2023-07-02T12:37:55.432Z,19.83
2023-07-02T12:40:22.391Z,16.50
2023-07-02T12:42:51.172Z,18.03
2023-07-02T12:45:21.080Z,14.03
2023-07-02T12:47:48.765Z,19.43
2023-07-02T12:50:15.988Z,20.33
2023-07-02T12:52:42.822Z,18.43
2023-07-02T12:55:09.861Z,15.70
2023-07-02T12:57:37.346Z,14.10
2023-07-02T13:00:07.278Z,20.27
2023-07-02T13:02:39.315Z,19.63
2023-07-02T13:05:14.558Z,16.43
2023-07-02T13:07:41.600Z,19.50
2023-07-02T13:10:08.824Z,24.40
2023-07-02T13:12:35.971Z,18.47
2023-07-02T13:15:02.937Z,18.30
2023-07-02T13:17:29.820Z,18.50
2023-07-02T13:19:57.423Z,26.33
2023-07-02T13:22:24.282Z,21.60
2023-07-02T13:24:51.055Z,18.33
2023-07-02T13:27:19.898Z,22.27
2023-07-02T13:29:46.694Z,25.20
2023-07-02T13:32:13.506Z,30.87
2023-07-02T13:34:40.329Z,23.53
2023-07-02T13:37:07.138Z,23.80
2023-07-02T13:39:33.925Z,23.23
2023-07-02T13:42:00.705Z,19.70
2023-07-02T13:44:27.953Z,18.77
2023-07-02T13:46:54.942Z,23.20
2023-07-02T13:49:22.457Z,23.57
2023-07-02T13:51:50.848Z,26.37
2023-07-02T13:54:19.600Z,27.00
2023-07-02T13:56:50.247Z,23.97
2023-07-02T13:59:18.352Z,22.30
2023-07-02T14:01:46.127Z,19.77
2023-07-02T14:04:14.082Z,24.70
2023-07-02T14:06:41.352Z,26.30
2023-07-02T14:09:08.988Z,23.43
2023-07-02T14:11:39.191Z,26.50
2023-07-02T14:14:06.745Z,23.23
2023-07-02T14:16:33.569Z,21.90
2023-07-02T14:19:00.353Z,34.70
2023-07-02T14:21:27.162Z,21.53
2023-07-02T14:23:53.941Z,34.83
2023-07-02T14:26:20.716Z,21.37
2023-07-02T14:28:47.608Z,21.73
2023-07-02T14:31:14.402Z,27.40
2023-07-02T14:33:41.356Z,24.93
2023-07-02T14:36:08.590Z,21.23
2023-07-02T14:38:35.552Z,24.97
2023-07-02T14:41:02.980Z,18.80
2023-07-02T14:43:31.915Z,19.30
2023-07-02T14:46:02.653Z,25.63
2023-07-02T14:48:29.958Z,19.67
2023-07-02T14:50:59.946Z,22.33
2023-07-02T14:53:28.619Z,22.63
2023-07-02T14:55:57.811Z,27.20
2023-07-02T14:58:25.693Z,23.17
2023-07-02T15:00:55.422Z,20.73
2023-07-02T15:03:24.309Z,22.50
2023-07-02T15:05:52.388Z,19.93
2023-07-02T15:08:21.831Z,20.20
2023-07-02T15:10:51.431Z,23.80
2023-07-02T15:13:19.177Z,19.07
2023-07-02T15:15:47.703Z,24.20
2023-07-02T15:18:14.760Z,22.47
2023-07-02T15:20:45.333Z,19.60
2023-07-02T15:23:13.537Z,35.13
2023-07-02T15:25:40.518Z,19.50
2023-07-02T15:28:07.344Z,16.70
2023-07-02T15:30:38.219Z,21.00
2023-07-02T15:33:05.059Z,22.90
2023-07-02T15:35:32.513Z,20.20
2023-07-02T15:37:59.689Z,16.93
2023-07-02T15:40:27.536Z,21.10
2023-07-02T15:42:54.304Z,28.13
2023-07-02T15:45:21.067Z,23.40
2023-07-02T15:47:47.892Z,19.30
2023-07-02T15:50:14.752Z,25.63
2023-07-02T15:52:41.490Z,26.77
2023-07-02T15:55:08.526Z,21.17
2023-07-02T15:57:35.356Z,21.93
2023-07-02T16:00:02.356Z,22.00
2023-07-02T16:02:40.892Z,25.63
2023-07-02T16:05:08.522Z,32.33
2023-07-02T16:07:35.593Z,24.00
2023-07-02T16:10:06.555Z,24.23
2023-07-02T16:12:33.359Z,20.73
2023-07-02T16:15:00.131Z,22.27
2023-07-02T16:17:26.984Z,21.10
2023-07-02T16:19:53.778Z,22.80
2023-07-02T16:22:20.616Z,28.33
2023-07-02T16:24:48.162Z,22.90
2023-07-02T16:27:15.044Z,24.53
2023-07-02T16:29:41.867Z,29.27
2023-07-02T16:32:13.560Z,26.77
2023-07-02T16:34:40.348Z,30.63
2023-07-02T16:37:07.785Z,23.63
2023-07-02T16:39:35.286Z,29.70
2023-07-02T16:42:02.291Z,26.13
2023-07-02T16:44:31.063Z,21.60
2023-07-02T16:46:59.088Z,25.30
2023-07-02T16:49:28.065Z,20.97
2023-07-02T16:51:55.815Z,25.40
2023-07-02T16:54:24.668Z,20.67
2023-07-02T16:56:57.944Z,27.67
2023-07-02T16:59:26.738Z,22.40
2023-07-02T17:01:56.079Z,34.87
2023-07-02T17:04:24.730Z,22.53
2023-07-02T17:07:00.393Z,24.80
2023-07-02T17:09:34.276Z,23.80
2023-07-02T17:12:06.663Z,26.40
2023-07-02T17:14:37.552Z,22.77
2023-07-02T17:17:08.380Z,24.50
2023-07-02T17:19:43.465Z,22.53
2023-07-02T17:22:14.230Z,22.00
2023-07-02T17:24:43.881Z,25.60
2023-07-02T17:27:12.680Z,25.00
2023-07-02T17:29:39.818Z,23.27
2023-07-02T17:32:08.969Z,28.13
2023-07-02T17:34:37.642Z,27.63
2023-07-02T17:37:07.490Z,29.67
2023-07-02T17:39:37.142Z,26.40
2023-07-02T17:42:04.895Z,27.20
2023-07-02T17:44:35.062Z,26.30
2023-07-02T17:47:06.134Z,29.57
2023-07-02T17:49:35.345Z,26.07
2023-07-02T17:52:02.346Z,25.03
2023-07-02T17:54:41.559Z,28.17
2023-07-02T17:57:10.688Z,25.80
2023-07-02T17:59:37.971Z,27.20
2023-07-02T18:02:06.131Z,21.80
2023-07-02T18:07:10.817Z,21.87
2023-07-02T18:09:41.576Z,33.73
2023-07-02T18:12:10.338Z,22.70
2023-07-02T18:14:39.426Z,23.60
2023-07-02T18:17:06.794Z,25.27
2023-07-02T18:19:35.483Z,23.70
2023-07-02T18:22:04.122Z,23.93
2023-07-02T18:24:36.487Z,26.33
2023-07-02T18:27:05.105Z,25.53
2023-07-02T18:29:33.537Z,25.37
2023-07-02T18:32:06.344Z,22.43
2023-07-02T18:34:35.132Z,22.40
2023-07-02T18:37:02.783Z,27.97
2023-07-02T18:39:33.192Z,29.07
2023-07-02T18:42:01.327Z,24.80
2023-07-02T18:44:34.598Z,23.47
2023-07-02T18:47:03.293Z,21.67
2023-07-02T18:49:35.565Z,27.27
2023-07-02T18:52:08.463Z,20.33
2023-07-02T18:54:36.417Z,24.63
2023-07-02T18:57:05.070Z,28.30
2023-07-02T18:59:32.094Z,24.60
2023-07-02T19:02:00.119Z,29.27
2023-07-02T19:04:28.160Z,25.40
2023-07-02T19:06:57.427Z,20.63
2023-07-02T19:09:24.709Z,26.67
2023-07-02T19:11:51.452Z,24.13
2023-07-02T19:14:18.392Z,21.80
2023-07-02T19:16:45.315Z,26.97
2023-07-02T19:19:12.132Z,22.93
2023-07-02T19:21:39.320Z,26.07
2023-07-02T19:24:06.428Z,26.70
2023-07-02T19:26:33.231Z,29.30
2023-07-02T19:29:00.058Z,21.73
2023-07-02T19:31:26.901Z,24.93
2023-07-02T19:33:53.814Z,24.83
2023-07-02T19:36:20.617Z,24.10
2023-07-02T19:38:47.523Z,23.13
2023-07-02T19:41:14.304Z,24.33
2023-07-02T19:43:41.102Z,28.57
2023-07-02T19:46:08.331Z,23.43
2023-07-02T19:48:35.146Z,24.27
2023-07-02T19:51:06.153Z,26.40
2023-07-02T19:53:35.212Z,25.70
2023-07-02T19:56:09.424Z,26.70
2023-07-02T19:58:37.264Z,25.93
2023-07-02T20:01:04.530Z,26.23
2023-07-02T20:03:32.338Z,25.00
2023-07-02T20:05:59.624Z,29.47
2023-07-02T20:08:26.531Z,25.73
2023-07-02T20:10:53.513Z,27.77
2023-07-02T20:13:20.936Z,29.80
2023-07-02T20:15:49.822Z,23.13
2023-07-02T20:18:18.143Z,26.90
2023-07-02T20:20:45.009Z,24.23
2023-07-02T20:23:12.106Z,34.33
2023-07-02T20:25:49.887Z,25.57
2023-07-02T20:28:17.320Z,25.10
2023-07-02T20:30:45.694Z,36.53
2023-07-02T20:33:12.988Z,27.37
2023-07-02T20:35:42.326Z,26.53
2023-07-02T20:38:10.401Z,29.80
2023-07-02T20:40:38.034Z,21.17
2023-07-02T20:43:05.356Z,24.00
2023-07-02T20:45:32.226Z,24.80
2023-07-02T20:48:03.491Z,24.20
2023-07-02T20:50:30.505Z,26.43
2023-07-02T20:52:58.585Z,25.17
2023-07-02T20:55:25.496Z,28.50
2023-07-02T20:57:52.295Z,29.67
2023-07-02T21:00:19.227Z,26.90
2023-07-02T21:02:46.116Z,26.70
2023-07-02T21:05:14.207Z,25.87
2023-07-02T21:07:42.056Z,26.83
2023-07-02T21:10:09.059Z,25.30
2023-07-02T21:12:35.964Z,19.97
2023-07-02T21:15:03.954Z,27.73
2023-07-02T21:17:31.488Z,20.20
2023-07-02T21:19:58.425Z,26.60
2023-07-02T21:22:25.588Z,25.07
2023-07-02T21:24:52.385Z,27.50
2023-07-02T21:27:19.306Z,32.20
2023-07-02T21:29:46.078Z,27.10
2023-07-02T21:32:12.965Z,28.40
2023-07-02T21:34:42.222Z,24.93
2023-07-02T21:37:09.180Z,29.63
2023-07-02T21:39:35.971Z,27.00
2023-07-02T21:42:03.005Z,23.20
2023-07-02T21:44:29.829Z,24.17
2023-07-02T21:46:56.612Z,23.37
2023-07-02T21:49:23.591Z,22.70
2023-07-02T21:51:50.586Z,24.00
2023-07-02T21:54:17.478Z,22.20
2023-07-02T21:56:44.291Z,30.93
2023-07-02T21:59:11.604Z,27.07
2023-07-02T22:01:39.881Z,25.87
2023-07-02T22:04:06.772Z,27.13
2023-07-02T22:06:33.860Z,28.23
2023-07-02T22:09:04.511Z,24.33
2023-07-02T22:11:31.296Z,30.00
2023-07-02T22:13:58.085Z,24.33
2023-07-02T22:16:24.910Z,24.97
2023-07-02T22:18:52.054Z,25.50
2023-07-02T22:21:18.922Z,29.30
2023-07-02T22:23:47.717Z,28.33
2023-07-02T22:26:14.991Z,28.03
2023-07-02T22:28:41.928Z,28.07
2023-07-02T22:31:08.728Z,27.13
2023-07-02T22:33:35.553Z,24.67
2023-07-02T22:36:02.401Z,24.83
2023-07-02T22:38:29.268Z,24.63
2023-07-02T22:40:56.057Z,26.40
2023-07-02T22:43:22.840Z,27.70
2023-07-02T22:45:50.116Z,24.73
2023-07-02T22:48:17.641Z,29.10
2023-07-02T22:50:45.355Z,28.33
2023-07-02T22:53:12.220Z,27.00
2023-07-02T22:55:39.076Z,26.53
2023-07-02T22:58:05.953Z,25.33
2023-07-02T23:00:32.741Z,26.53
2023-07-02T23:02:59.715Z,24.83
2023-07-02T23:05:26.739Z,26.43
2023-07-02T23:07:53.576Z,28.57
2023-07-02T23:10:21.124Z,31.63
2023-07-02T23:12:50.340Z,32.40
2023-07-02T23:15:20.855Z,31.93
2023-07-02T23:17:53.208Z,25.57
2023-07-02T23:20:20.507Z,24.80
2023-07-02T23:22:49.446Z,27.90
2023-07-02T23:25:20.020Z,25.07
2023-07-02T23:27:49.838Z,26.70
2023-07-02T23:30:22.148Z,27.27
2023-07-02T23:32:54.282Z,25.27
2023-07-02T23:35:21.860Z,28.90
2023-07-02T23:37:51.564Z,26.80
2023-07-02T23:40:19.085Z,28.47
2023-07-02T23:42:46.630Z,28.97
2023-07-02T23:45:15.652Z,28.47
2023-07-02T23:47:43.878Z,25.03
2023-07-02T23:50:12.390Z,29.30
2023-07-02T23:52:39.931Z,30.37
2023-07-02T23:55:11.999Z,31.17
2023-07-02T23:57:39.421Z,30.77
